createdAt,value
2023-01-26T08:47:28.916Z,57.30
2023-01-26T08:51:52.955Z,80.40
2023-01-26T08:55:22.380Z,64.20
2023-01-26T08:58:35.498Z,55.60
2023-01-26T09:03:05.355Z,52.70
2023-01-26T09:06:38.947Z,56.90
2023-01-26T09:10:16.426Z,41.80
2023-01-26T09:15:33.866Z,33.90
2023-01-26T09:18:02.776Z,35.60
2023-01-26T09:20:31.867Z,41.80
2023-01-26T09:23:01.472Z,38.90
2023-01-26T09:25:30.399Z,37.70
2023-01-26T09:27:59.411Z,37.70
2023-01-26T09:30:46.681Z,40.90
2023-01-26T09:33:18.318Z,30.20
2023-01-26T09:47:11.754Z,34.80
2023-01-26T10:04:59.039Z,40.20
2023-01-26T10:17:06.881Z,36.40
2023-01-26T10:28:36.783Z,43.40
2023-01-26T10:39:23.827Z,42.60
2023-01-26T10:43:10.527Z,32.70
2023-01-26T10:45:45.610Z,41.40
2023-01-26T10:48:24.537Z,39.20
2023-01-26T10:50:54.071Z,38.20
2023-01-26T10:53:30.067Z,40.40
2023-01-26T10:56:12.734Z,34.80
2023-01-26T10:58:45.502Z,41.90
2023-01-26T11:04:15.785Z,39.50
2023-01-26T11:06:45.301Z,36.50
2023-01-26T11:09:22.985Z,44.10
2023-01-26T11:11:56.666Z,39.90
2023-01-26T11:14:25.690Z,33.90
2023-01-26T11:16:57.252Z,38.40
2023-01-26T11:19:44.882Z,33.80
2023-01-26T11:22:22.991Z,32.40
2023-01-26T11:25:14.304Z,34.80
2023-01-26T11:28:01.550Z,31.30
2023-01-26T11:30:35.740Z,30.80
2023-01-26T11:33:18.417Z,32.50
2023-01-26T11:36:26.037Z,29.90
2023-01-26T11:39:24.680Z,35.10
2023-01-26T11:42:32.044Z,35.60
2023-01-26T11:45:10.905Z,33.10
2023-01-26T11:47:59.002Z,32.10
2023-01-26T11:50:36.668Z,30.20
2023-01-26T11:53:31.860Z,29.70
2023-01-26T11:56:24.236Z,33.50
2023-01-26T11:59:14.145Z,37.40
2023-01-26T16:02:22.827Z,49.50
2023-01-26T16:04:50.870Z,64.20
2023-01-26T16:07:18.545Z,60.70
2023-01-26T16:09:48.076Z,57.00
2023-01-26T16:12:31.289Z,73.70
2023-01-26T16:14:59.652Z,61.30
2023-01-26T16:17:28.029Z,52.70
2023-01-26T16:19:55.758Z,50.90
2023-01-26T16:22:23.312Z,50.30
2023-01-26T16:24:50.903Z,41.60
2023-01-26T16:27:20.817Z,45.50
2023-01-26T16:29:48.183Z,49.10
2023-01-26T16:32:28.156Z,40.70
2023-01-26T16:34:56.127Z,41.60
2023-01-26T16:37:23.738Z,45.30
2023-01-26T16:39:51.231Z,30.60
2023-01-26T16:42:18.989Z,37.40
2023-01-26T16:44:46.945Z,44.00
2023-01-26T16:47:14.449Z,43.80
2023-01-26T16:49:45.319Z,40.40
2023-01-26T16:52:13.001Z,44.60
2023-01-26T16:54:40.408Z,48.30
2023-01-26T16:57:08.532Z,42.30
2023-01-26T16:59:36.147Z,57.40
2023-01-26T17:02:03.613Z,57.70
2023-01-26T17:04:31.456Z,45.90
2023-01-26T17:06:59.429Z,46.40
2023-01-26T17:09:26.899Z,42.00
2023-01-26T17:11:54.675Z,36.10
2023-01-26T17:14:24.176Z,40.50
2023-01-26T17:16:51.741Z,57.80
2023-01-26T17:19:19.137Z,69.50
2023-01-26T17:21:46.721Z,43.60
2023-01-26T17:24:14.391Z,40.50
2023-01-26T17:26:41.842Z,40.10
2023-01-26T17:29:09.797Z,37.30
2023-01-26T17:31:37.346Z,37.70
2023-01-26T17:34:04.831Z,51.00
2023-01-26T17:36:32.399Z,47.00
2023-01-26T17:39:00.328Z,44.50
2023-01-26T17:41:28.862Z,38.40
2023-01-26T17:43:56.506Z,48.10
2023-01-26T17:46:23.885Z,46.60
2023-01-26T17:48:51.370Z,41.30
2023-01-26T17:51:20.234Z,45.00
2023-01-26T17:53:49.405Z,39.40
2023-01-26T17:56:19.062Z,36.20
2023-01-26T17:58:48.535Z,41.90
2023-01-26T18:01:16.285Z,39.40
2023-01-26T18:03:44.072Z,40.80
2023-01-26T18:06:12.366Z,47.10
2023-01-26T18:08:40.418Z,57.50
2023-01-26T18:11:10.470Z,44.20
2023-01-26T18:13:38.309Z,43.80
2023-01-26T18:16:06.976Z,56.70
2023-01-26T18:18:35.207Z,46.90
2023-01-26T18:21:19.629Z,52.10
2023-01-26T18:23:47.287Z,46.90
2023-01-26T18:26:15.074Z,39.50
2023-01-26T18:28:42.745Z,46.60
2023-01-26T18:31:29.400Z,43.40
2023-01-26T18:33:58.620Z,51.30
2023-01-26T18:36:26.447Z,44.80
2023-01-26T18:38:56.222Z,44.30
2023-01-26T18:41:26.297Z,41.70
2023-01-26T18:43:54.717Z,37.90
2023-01-26T18:46:22.255Z,45.10
2023-01-26T18:48:52.290Z,40.60
2023-01-26T18:51:21.750Z,42.80
2023-01-26T18:53:49.672Z,42.50
2023-01-26T18:56:17.623Z,42.40
2023-01-26T18:58:45.055Z,42.30
2023-01-26T19:01:14.072Z,41.20
2023-01-26T19:03:46.849Z,39.00
2023-01-26T19:06:20.520Z,38.50
2023-01-26T19:08:58.064Z,43.20
2023-01-26T19:11:29.057Z,42.60
2023-01-26T19:13:57.035Z,41.30
2023-01-26T19:16:24.596Z,38.80
2023-01-26T19:18:52.098Z,34.90
2023-01-26T19:21:21.579Z,40.70
2023-01-26T19:23:50.607Z,36.90
2023-01-26T19:26:19.689Z,36.80
2023-01-26T19:28:50.402Z,39.10
2023-01-26T19:31:21.170Z,33.30
2023-01-26T19:33:54.000Z,31.70
2023-01-26T19:36:21.748Z,38.70
2023-01-26T19:38:53.420Z,36.30
2023-01-26T19:41:22.032Z,39.90
2023-01-26T19:43:50.164Z,42.40
2023-01-26T19:46:18.420Z,37.80
2023-01-26T21:58:07.811Z,32.80
2023-01-26T22:00:38.259Z,39.40
2023-01-26T22:03:07.190Z,50.70
2023-01-26T22:05:36.823Z,52.80
2023-01-26T22:08:08.606Z,54.40
2023-01-26T22:13:07.690Z,58.50
2023-01-26T22:15:36.677Z,50.30
2023-01-26T22:18:07.498Z,50.30
2023-01-26T22:20:37.562Z,44.20
2023-01-26T22:23:06.556Z,43.50
2023-01-26T22:25:39.308Z,38.20
2023-01-26T22:28:08.585Z,36.60
2023-01-26T22:30:37.693Z,37.70
2023-01-26T22:33:06.918Z,35.00
2023-01-26T22:35:38.652Z,37.60
2023-01-26T22:38:08.286Z,39.50
2023-01-26T22:40:38.068Z,39.30
2023-01-26T22:43:09.329Z,33.10
2023-01-26T22:45:38.402Z,38.30
2023-01-26T22:48:07.270Z,41.70
2023-01-26T22:50:36.424Z,40.30
2023-01-26T22:53:05.300Z,46.00
2023-01-26T22:55:34.176Z,44.40
2023-01-26T22:58:03.230Z,43.70
2023-01-26T23:00:34.306Z,46.50
2023-01-26T23:03:03.387Z,40.90
2023-01-26T23:05:36.545Z,53.80
2023-01-26T23:08:05.843Z,36.50
2023-01-26T23:10:34.806Z,58.20
2023-01-26T23:13:03.981Z,55.90
2023-01-26T23:15:33.605Z,59.70
2023-01-26T23:18:03.317Z,64.20
2023-01-26T23:20:33.191Z,49.40
2023-01-26T23:23:02.304Z,55.50
2023-01-26T23:25:49.932Z,47.70
2023-01-26T23:28:32.852Z,49.30
2023-01-26T23:31:02.005Z,54.80
2023-01-26T23:33:31.846Z,55.90
2023-01-26T23:36:01.085Z,54.30
2023-01-26T23:38:30.511Z,50.90
2023-01-26T23:41:00.948Z,47.50
2023-01-26T23:43:30.066Z,51.00
2023-01-26T23:45:59.286Z,55.70
2023-01-26T23:48:28.348Z,45.00
2023-01-26T23:51:01.163Z,54.00
2023-01-26T23:53:31.152Z,45.20
2023-01-26T23:56:00.954Z,53.60
2023-01-26T23:58:29.937Z,47.90
